AAL201 KDEN-KASE
Flight info
| Callsign | AAL201 |
|---|---|
| Flight time | 0h 25m |
| Altitude | 22000 |
| Route | CONNR8 CONNR MMARY MMARY1 |
| Aircraft | B738/M-SDE2E3FGHIRWXY/LB1 |
Departure
| Time | 2026-05-04 21:39 |
|---|---|
| Airport | Denver International Airport (KDEN) |
Arrival
| Time | 2026-05-04 22:05 |
|---|---|
| Airport | Aspen-Pitkin County Airport (Sardy Field) (KASE) |
| Time | Latitude | Longitude | Altitude | Speed | Heading |
|---|---|---|---|---|---|
| 2026-05-04 21:23 | 39.85804 | -104.67085 | 5379 ft | 0 kts | 3° |
| 2026-05-04 21:26 | 39.85790 | -104.67086 | 5378 ft | 4 kts | 7° |
| 2026-05-04 21:26 | 39.85764 | -104.67089 | 5379 ft | 4 kts | 354° |
| 2026-05-04 21:26 | 39.85740 | -104.67079 | 5379 ft | 4 kts | 315° |
| 2026-05-04 21:26 | 39.85729 | -104.67051 | 5379 ft | 2 kts | 270° |
| 2026-05-04 21:27 | 39.85729 | -104.67043 | 5379 ft | 1 kts | 270° |
| 2026-05-04 21:30 | 39.85729 | -104.67054 | 5379 ft | 3 kts | 270° |
| 2026-05-04 21:30 | 39.85729 | -104.67060 | 5379 ft | 4 kts | 270° |
| 2026-05-04 21:30 | 39.85729 | -104.67069 | 5379 ft | 4 kts | 271° |
| 2026-05-04 21:31 | 39.85732 | -104.67240 | 5379 ft | 18 kts | 271° |
| 2026-05-04 21:31 | 39.85731 | -104.67400 | 5379 ft | 17 kts | 270° |
| 2026-05-04 21:31 | 39.85734 | -104.67554 | 5379 ft | 17 kts | 270° |
| 2026-05-04 21:32 | 39.85735 | -104.67701 | 5378 ft | 16 kts | 270° |
| 2026-05-04 21:32 | 39.85735 | -104.67842 | 5379 ft | 15 kts | 270° |
| 2026-05-04 21:32 | 39.85737 | -104.67978 | 5377 ft | 15 kts | 271° |
| 2026-05-04 21:32 | 39.85738 | -104.68109 | 5379 ft | 14 kts | 270° |
| 2026-05-04 21:33 | 39.85729 | -104.68190 | 5378 ft | 6 kts | 223° |
| 2026-05-04 21:33 | 39.85694 | -104.68205 | 5379 ft | 5 kts | 214° |
| 2026-05-04 21:33 | 39.85686 | -104.68277 | 5377 ft | 13 kts | 271° |
| 2026-05-04 21:33 | 39.85686 | -104.68377 | 5373 ft | 10 kts | 259° |
| 2026-05-04 21:34 | 39.85634 | -104.68403 | 5372 ft | 10 kts | 179° |
| 2026-05-04 21:34 | 39.85538 | -104.68400 | 5378 ft | 17 kts | 180° |
| 2026-05-04 21:34 | 39.85423 | -104.68400 | 5378 ft | 16 kts | 180° |
| 2026-05-04 21:34 | 39.85374 | -104.68402 | 5380 ft | 0 kts | 180° |
| 2026-05-04 21:35 | 39.85370 | -104.68402 | 5380 ft | 3 kts | 180° |
| 2026-05-04 21:35 | 39.85322 | -104.68402 | 5378 ft | 9 kts | 180° |
| 2026-05-04 21:35 | 39.85252 | -104.68403 | 5374 ft | 10 kts | 180° |
| 2026-05-04 21:36 | 39.85203 | -104.68449 | 5378 ft | 10 kts | 271° |
| 2026-05-04 21:36 | 39.85207 | -104.68538 | 5377 ft | 10 kts | 269° |
| 2026-05-04 21:36 | 39.85204 | -104.68672 | 5370 ft | 20 kts | 269° |
| 2026-05-04 21:36 | 39.85200 | -104.68878 | 5359 ft | 24 kts | 269° |
| 2026-05-04 21:37 | 39.85197 | -104.69108 | 5350 ft | 26 kts | 269° |
| 2026-05-04 21:37 | 39.85200 | -104.69348 | 5338 ft | 26 kts | 272° |
| 2026-05-04 21:37 | 39.85202 | -104.69572 | 5335 ft | 19 kts | 270° |
| 2026-05-04 21:37 | 39.85268 | -104.69657 | 5338 ft | 14 kts | 356° |
| 2026-05-04 21:38 | 39.85368 | -104.69656 | 5335 ft | 17 kts | 0° |
| 2026-05-04 21:38 | 39.85658 | -104.69653 | 5339 ft | 67 kts | 0° |
| 2026-05-04 21:38 | 39.86298 | -104.69645 | 5335 ft | 115 kts | 1° |
| 2026-05-04 21:38 | 39.87226 | -104.69635 | 5340 ft | 154 kts | 0° |
| 2026-05-04 21:39 | 39.88404 | -104.69616 | 5377 ft | 180 kts | 0° |
| 2026-05-04 21:39 | 39.89670 | -104.69582 | 5802 ft | 186 kts | 358° |
| 2026-05-04 21:39 | 39.90996 | -104.69618 | 6269 ft | 191 kts | 349° |
| 2026-05-04 21:39 | 39.92202 | -104.70250 | 6683 ft | 192 kts | 315° |
| 2026-05-04 21:40 | 39.92754 | -104.71801 | 7027 ft | 196 kts | 270° |
| 2026-05-04 21:40 | 39.92321 | -104.73439 | 7563 ft | 197 kts | 232° |
| 2026-05-04 21:40 | 39.91491 | -104.74802 | 8296 ft | 188 kts | 239° |
| 2026-05-04 21:40 | 39.90803 | -104.76271 | 8812 ft | 194 kts | 242° |
| 2026-05-04 21:41 | 39.90070 | -104.77855 | 8998 ft | 215 kts | 240° |
| 2026-05-04 21:41 | 39.89281 | -104.79564 | 9330 ft | 226 kts | 240° |
| 2026-05-04 21:41 | 39.88436 | -104.81392 | 9470 ft | 245 kts | 241° |
| 2026-05-04 21:41 | 39.87555 | -104.83355 | 9762 ft | 259 kts | 242° |
| 2026-05-04 21:42 | 39.86601 | -104.85474 | 9883 ft | 282 kts | 240° |
| 2026-05-04 21:42 | 39.85596 | -104.87675 | 9933 ft | 281 kts | 240° |
| 2026-05-04 21:42 | 39.84589 | -104.89897 | 10134 ft | 290 kts | 241° |
| 2026-05-04 21:42 | 39.83834 | -104.92333 | 10781 ft | 289 kts | 257° |
| 2026-05-04 21:43 | 39.83386 | -104.94899 | 11514 ft | 292 kts | 255° |
| 2026-05-04 21:43 | 39.82893 | -104.97448 | 12216 ft | 293 kts | 255° |
| 2026-05-04 21:43 | 39.82384 | -105.00013 | 13005 ft | 293 kts | 254° |
| 2026-05-04 21:43 | 39.81865 | -105.02584 | 13807 ft | 294 kts | 254° |
| 2026-05-04 21:44 | 39.81348 | -105.05155 | 14546 ft | 295 kts | 255° |
| 2026-05-04 21:44 | 39.80835 | -105.07742 | 15236 ft | 295 kts | 255° |
| 2026-05-04 21:44 | 39.80311 | -105.10316 | 15756 ft | 300 kts | 255° |
| 2026-05-04 21:44 | 39.79782 | -105.12966 | 16462 ft | 301 kts | 255° |
| 2026-05-04 21:45 | 39.79268 | -105.15546 | 17143 ft | 299 kts | 255° |
| 2026-05-04 21:45 | 39.78738 | -105.18189 | 17657 ft | 305 kts | 255° |
| 2026-05-04 21:45 | 39.78184 | -105.20929 | 17809 ft | 323 kts | 255° |
| 2026-05-04 21:45 | 39.77598 | -105.23822 | 17999 ft | 338 kts | 255° |
| 2026-05-04 21:46 | 39.76994 | -105.26820 | 18329 ft | 350 kts | 255° |
| 2026-05-04 21:46 | 39.76361 | -105.29862 | 18945 ft | 347 kts | 255° |
| 2026-05-04 21:46 | 39.75730 | -105.32904 | 19269 ft | 354 kts | 256° |
| 2026-05-04 21:46 | 39.75107 | -105.36027 | 19766 ft | 358 kts | 256° |
| 2026-05-04 21:47 | 39.74471 | -105.39140 | 20383 ft | 357 kts | 256° |
| 2026-05-04 21:47 | 39.73836 | -105.42273 | 20852 ft | 360 kts | 256° |
| 2026-05-04 21:47 | 39.73191 | -105.45426 | 21323 ft | 362 kts | 256° |
| 2026-05-04 21:47 | 39.72540 | -105.48597 | 21778 ft | 365 kts | 256° |
| 2026-05-04 21:48 | 39.71888 | -105.51772 | 21795 ft | 363 kts | 256° |
| 2026-05-04 21:48 | 39.71240 | -105.54955 | 21833 ft | 365 kts | 256° |
| 2026-05-04 21:48 | 39.70577 | -105.58148 | 21816 ft | 367 kts | 256° |
| 2026-05-04 21:48 | 39.69930 | -105.61340 | 21834 ft | 366 kts | 256° |
| 2026-05-04 21:49 | 39.69285 | -105.64540 | 21849 ft | 365 kts | 256° |
| 2026-05-04 21:49 | 39.68639 | -105.67710 | 21831 ft | 362 kts | 257° |
| 2026-05-04 21:49 | 39.68024 | -105.70881 | 21840 ft | 363 kts | 257° |
| 2026-05-04 21:49 | 39.67429 | -105.74064 | 21843 ft | 361 kts | 257° |
| 2026-05-04 21:50 | 39.66844 | -105.77231 | 21844 ft | 360 kts | 257° |
| 2026-05-04 21:50 | 39.66255 | -105.80400 | 21843 ft | 361 kts | 257° |
| 2026-05-04 21:50 | 39.65664 | -105.83562 | 21843 ft | 361 kts | 257° |
| 2026-05-04 21:50 | 39.65070 | -105.86722 | 21869 ft | 360 kts | 257° |
| 2026-05-04 21:51 | 39.64474 | -105.89872 | 21859 ft | 360 kts | 257° |
| 2026-05-04 21:51 | 39.63877 | -105.93031 | 21873 ft | 361 kts | 257° |
| 2026-05-04 21:51 | 39.63286 | -105.96149 | 21867 ft | 361 kts | 257° |
| 2026-05-04 21:51 | 39.62683 | -105.99317 | 21863 ft | 363 kts | 257° |
| 2026-05-04 21:52 | 39.62067 | -106.02549 | 21884 ft | 375 kts | 257° |
| 2026-05-04 21:52 | 39.61433 | -106.05878 | 21867 ft | 384 kts | 257° |
| 2026-05-04 21:52 | 39.60793 | -106.09227 | 21855 ft | 377 kts | 257° |
| 2026-05-04 21:52 | 39.60167 | -106.12487 | 21626 ft | 368 kts | 257° |
| 2026-05-04 21:53 | 39.59559 | -106.15652 | 21461 ft | 357 kts | 257° |
| 2026-05-04 21:53 | 39.58961 | -106.18758 | 21051 ft | 353 kts | 257° |
| 2026-05-04 21:53 | 39.58373 | -106.21818 | 20655 ft | 349 kts | 257° |
| 2026-05-04 21:53 | 39.57787 | -106.24863 | 20230 ft | 347 kts | 257° |
| 2026-05-04 21:54 | 39.57205 | -106.27883 | 19816 ft | 345 kts | 257° |
| 2026-05-04 21:54 | 39.56623 | -106.30897 | 19423 ft | 344 kts | 257° |
| 2026-05-04 21:54 | 39.56049 | -106.33864 | 19285 ft | 335 kts | 257° |
| 2026-05-04 21:54 | 39.55490 | -106.36756 | 19120 ft | 327 kts | 257° |
| 2026-05-04 21:55 | 39.54942 | -106.39576 | 18990 ft | 318 kts | 257° |
| 2026-05-04 21:55 | 39.54414 | -106.42309 | 18834 ft | 308 kts | 257° |
| 2026-05-04 21:55 | 39.54143 | -106.45027 | 18540 ft | 303 kts | 271° |
| 2026-05-04 21:55 | 39.54245 | -106.47727 | 18268 ft | 299 kts | 272° |
| 2026-05-04 21:56 | 39.54343 | -106.50416 | 17932 ft | 298 kts | 272° |
| 2026-05-04 21:56 | 39.54430 | -106.53088 | 17622 ft | 296 kts | 272° |
| 2026-05-04 21:56 | 39.54509 | -106.55768 | 17277 ft | 298 kts | 272° |
| 2026-05-04 21:56 | 39.54583 | -106.58465 | 16903 ft | 301 kts | 271° |
| 2026-05-04 21:57 | 39.54652 | -106.61157 | 16612 ft | 299 kts | 271° |
| 2026-05-04 21:57 | 39.54716 | -106.63808 | 16281 ft | 296 kts | 271° |
| 2026-05-04 21:57 | 39.54780 | -106.66450 | 15984 ft | 293 kts | 272° |
| 2026-05-04 21:57 | 39.54636 | -106.69074 | 15678 ft | 293 kts | 254° |
| 2026-05-04 21:58 | 39.53843 | -106.71500 | 15487 ft | 293 kts | 245° |
| 2026-05-04 21:58 | 39.52883 | -106.73823 | 15239 ft | 293 kts | 242° |
| 2026-05-04 21:58 | 39.51848 | -106.76103 | 15011 ft | 293 kts | 240° |
| 2026-05-04 21:58 | 39.50739 | -106.78304 | 14725 ft | 291 kts | 234° |
| 2026-05-04 21:59 | 39.49493 | -106.80333 | 14535 ft | 286 kts | 233° |
| 2026-05-04 21:59 | 39.48250 | -106.82326 | 14309 ft | 283 kts | 233° |
| 2026-05-04 21:59 | 39.47042 | -106.84304 | 14077 ft | 276 kts | 234° |
| 2026-05-04 21:59 | 39.45889 | -106.86215 | 13887 ft | 259 kts | 234° |
| 2026-05-04 22:00 | 39.44819 | -106.87907 | 13802 ft | 230 kts | 224° |
| 2026-05-04 22:00 | 39.43496 | -106.88851 | 13674 ft | 208 kts | 205° |
| 2026-05-04 22:00 | 39.42095 | -106.89228 | 13358 ft | 202 kts | 185° |
| 2026-05-04 22:00 | 39.41185 | -106.89172 | 13262 ft | 193 kts | 183° |
| 2026-05-04 22:01 | 39.39864 | -106.89040 | 13007 ft | 188 kts | 182° |
| 2026-05-04 22:01 | 39.38567 | -106.88898 | 12802 ft | 190 kts | 183° |
| 2026-05-04 22:01 | 39.37239 | -106.88769 | 12559 ft | 195 kts | 181° |
| 2026-05-04 22:01 | 39.35887 | -106.88625 | 12398 ft | 189 kts | 182° |
| 2026-05-04 22:02 | 39.34624 | -106.88483 | 12165 ft | 173 kts | 184° |
| 2026-05-04 22:02 | 39.33447 | -106.88369 | 11826 ft | 170 kts | 182° |
| 2026-05-04 22:02 | 39.32285 | -106.88244 | 11390 ft | 165 kts | 181° |
| 2026-05-04 22:02 | 39.31146 | -106.88118 | 10922 ft | 164 kts | 181° |
| 2026-05-04 22:03 | 39.30013 | -106.88018 | 10772 ft | 165 kts | 185° |
| 2026-05-04 22:03 | 39.28895 | -106.87990 | 10480 ft | 161 kts | 189° |
| 2026-05-04 22:03 | 39.27780 | -106.88195 | 9828 ft | 164 kts | 199° |
| 2026-05-04 22:03 | 39.26638 | -106.88411 | 9244 ft | 171 kts | 183° |
| 2026-05-04 22:04 | 39.25450 | -106.88234 | 8658 ft | 173 kts | 167° |
| 2026-05-04 22:04 | 39.24299 | -106.87825 | 8064 ft | 170 kts | 161° |
| 2026-05-04 22:04 | 39.23219 | -106.87310 | 7833 ft | 161 kts | 159° |
| 2026-05-04 22:04 | 39.22331 | -106.86893 | 7818 ft | 86 kts | 160° |
| 2026-05-04 22:05 | 39.22039 | -106.86737 | 7816 ft | 17 kts | 124° |
| 2026-05-04 22:05 | 39.22073 | -106.86651 | 7819 ft | 12 kts | 353° |
| 2026-05-04 22:05 | 39.22152 | -106.86683 | 7819 ft | 12 kts | 339° |
| 2026-05-04 22:05 | 39.22227 | -106.86721 | 7816 ft | 11 kts | 339° |
| 2026-05-04 22:06 | 39.22298 | -106.86756 | 7819 ft | 1 kts | 338° |